Rechercher aéroport 
image banner adimage banner adimage banner ad
image banner ad

2N5 - Kampel

Situé à Wellsville, United States

ICAO - 2N5, IATA -

Données fournies par Airmate  

Information générale

Coordonnées: N40°2'58" W76°58'38"
Élévation : 611 feet MSL.
Variation magnétique : -10° East
Voir autres Aéroports à Pennsylvania

Données opérationnelles

Special qualification required
Heure actuelle UTC:
Heure actuelle locale:
Météo à : KTHV - York ( 17 km )
METAR: KTHV 131853Z AUTO VRB03KT 10SM OVC027 24/19 A2988 RMK AO2 RAE26 SLP119 P0000 T02390189 $
Voir NOTAMs / SUP AIP / TFR affectant cet aéroport [VIEW]
Fréquences de communication: [VIEW]

Pistes:

Identifiant RWYQFULongueur (ft)Largeur (ft)SurfaceLDA (ft)
052550100GRASS
232550100GRASS

Coordonnées de l'aéroport

Adresse: Wellsville United States

Vue satellite de 2N5